To NAV CANADA Home Page Login to a new session Search on AWWS site Feedback and Comments Disclaimer Vers la page française équivalente Tips FAQ What's new on the site To the Forecasts and Observations / NOTAM section To "File a Flight Plan" website Publications and other links Update of the User's profile FIC Telephone Numbers My Weather Data Folder Route Weather Data Regional Weather Data Local Weather Data To the Forecasts and Observations / NOTAM section
Request Generated 09/30/2016 at 20:13:15 UTC . Weather information available at that time is displayed.

METAR/TAF

THOMPSON/MB    

METAR CYTH 302000Z VRB02KT 15SM SCT008 BKN012 14/13 A3018 RMK SC4SC3
SLP229=
METAR CYTH 301900Z 10004KT 050V180 15SM BKN006 OVC010 13/12 A3019 RMK
SC6SC2 SLP235=
METAR CYTH 301800Z 14004KT 090V210 15SM SCT003 BKN005 OVC007 12/11
A3021 RMK SC3SC3SC2 SLP242=

TAF CYTH 301838Z 3019/0107 14005KT P6SM -SHRA SCT003 BKN010 TEMPO
3019/3021 4SM -SHRA BR BKN003 OVC010
FM302100 07008KT P6SM SCT020 BKN140 TEMPO 3021/0107 BKN020 BKN140
RMK NXT FCST BY 010100Z=
Your time UTC time
Weather data provided by Environment Canada and NAV CANADA